Allen Army Airfield

Airport
ICAO code: 
PABI
IATA Code: 
BIG
Summary
ICAO Region: 
NAM
Territory: 
Location: 
Delta Junction, Alaska
Serving: 
Fort Greely
Elevation: 
1291 ft
Coordinates: 
Aerial View: 
63° 59' 40.369" N, 145° 43' 17.911" W
Metar
Observation
PABI 020353Z 27006KT 10SM BKN035 OVC170 M21/M25 A2974 RMK AO2 SLP132 T12111250
Station
Delta Junction/Ft Greely, Allen Army Airfield
Date/Time
2021-12-02 03:53:00
Wind direction
270°
Wind speed
06 kts
Lowest cloud amount
broken clouds
Temperature
-21.1°C
Dew point
-25°C
Humidity
70%
Weather condition
n/a

Runways

Designator Length Width Surface Rops
7/25 1426 50 ASPH-G No/No
10/28 1864 46 ASPH-G No/No
1/19 2743 46 ASPH-G No/No
Airport map: 
Aerial View: 

SKYbrary Partners:

Safety knowledge contributed by: